Princimar Hope — V7VN3 — position and weather

sailwx.info

Track history (hours):
 
Tides and Currents Weather Stations Pressure Air Temp Water Temp Dewpoint Dewpoint Depression Visibility Wind Speed Wind Dir Waves Ship Positions

Princimar Hope

Last reported at 2018-Jul-11 15:37 UTC. Time now 2018-Jul-21 22:53 UTC.
Position N 36°38' E 013°28'.
Warning: this ship's position is 10 days out of date.

Length 274 m; draft 9 m.

Type: Ship. MMSI: 538004163.

Date/timePositionNaut miles runAvg speedWind from/ knotsBaromVisibWave heightAir tempDewpointWater temp
2018-Jul-11 15:37N 36°38' E 013°28'110.9
2018-Jul-11 15:30N 36°37' E 013°30'5 9.5
2018-Jul-11 15:00N 36°35' E 013°35'5 9.2
2018-Jul-11 14:29N 36°34' E 013°41'5 8.9
2018-Jul-11 13:52N 36°32' E 013°47'3 8.8
2018-Jul-11 13:30N 36°31' E 013°51'5 9.1
2018-Jul-11 12:57N 36°29' E 013°57'4 9.2
2018-Jul-11 12:30N 36°28' E 014°02'6 9.2
2018-Jul-11 11:50N 36°25' E 014°09'4 9.4
2018-Jul-11 11:22N 36°24' E 014°14'5 9.4
2018-Jul-11 10:51N 36°22' E 014°20'8 9.5
2018-Jul-11 09:57N 36°19' E 014°29'4 9.3
2018-Jul-11 09:30N 36°17' E 014°34'5 9.2
2018-Jul-11 08:59N 36°16' E 014°40'5 9.1
2018-Jul-11 08:24N 36°14' E 014°46'4 9.3
2018-Jul-11 08:00N 36°13' E 014°50'611.1
2018-Jul-11 07:30N 36°11' E 014°57'10 9.6
2018-Jul-11 06:28N 36°10' E 015°09'5 9.5
2018-Jul-11 05:54N 36°10' E 015°16'4 9.6
2018-Jul-11 05:27N 36°10' E 015°21'  
2018-Jul-05 17:59N 46°13' E 030°56'4 8.0
2018-Jul-05 17:29N 46°17' E 030°54'4 9.4
2018-Jul-05 17:01N 46°22' E 030°55'5 9.5
2018-Jul-05 16:30N 46°26' E 030°55'5 9.3
2018-Jul-05 16:00N 46°31' E 030°56'4 7.6
2018-Jul-05 15:30N 46°33' E 030°60'4 7.9
2018-Jul-05 15:00N 46°35' E 031°05'1110.7
2018-Jul-05 14:00N 46°35' E 031°21'510.0
2018-Jul-05 13:30N 46°35' E 031°28'6 8.4
2018-Jul-05 12:51N 46°35' E 031°36'3 9.1
2018-Jul-05 12:30N 46°36' E 031°41'4 7.9
2018-Jul-05 12:01N 46°36' E 031°46'5 9.1
2018-Jul-05 11:30N 46°37' E 031°53'4 8.8
2018-Jul-05 11:01N 46°41' E 031°56'4 8.3
2018-Jul-05 10:30N 46°45' E 031°54'4 8.8
2018-Jul-05 10:00N 46°49' E 031°55'3 6.5
2018-Jul-05 09:31N 46°51' E 031°59'0 0.1
2018-Jul-05 09:00N 46°51' E 031°59'0 0.0
2018-Jul-05 08:30N 46°51' E 031°59'0 0.0
2018-Jul-05 08:00N 46°51' E 031°59'0 0.0
2018-Jul-05 07:30N 46°51' E 031°59'0 0.0
2018-Jul-05 07:00N 46°51' E 031°59'0 0.0
2018-Jul-05 06:30N 46°51' E 031°59'0 0.0
2018-Jul-05 06:00N 46°51' E 031°59'0 0.0
2018-Jul-05 05:30N 46°51' E 031°59'0 0.0
2018-Jul-05 05:00N 46°51' E 031°59'0 0.0
2018-Jul-05 04:30N 46°51' E 031°59'0 0.0
2018-Jul-05 04:00N 46°51' E 031°59'0 0.0
2018-Jul-05 03:30N 46°51' E 031°59'0 0.0
2018-Jul-05 03:00N 46°51' E 031°59'0 0.0
2018-Jul-05 02:30N 46°51' E 031°59'0 0.0
2018-Jul-05 02:00N 46°51' E 031°59'0 0.0
2018-Jul-05 01:30N 46°51' E 031°59'0 0.0
2018-Jul-05 01:00N 46°51' E 031°59'0 0.0
2018-Jul-05 00:30N 46°51' E 031°59'0 0.0
2018-Jul-05 00:00N 46°51' E 031°59'0 0.0
2018-Jul-04 23:30N 46°51' E 031°59'0 0.0
2018-Jul-04 23:00N 46°51' E 031°59'0 0.0
2018-Jul-04 22:26N 46°51' E 031°59'0 0.0
2018-Jul-04 21:53N 46°51' E 031°59'0 0.0
2018-Jul-04 21:23N 46°51' E 031°59'0 0.0
2018-Jul-04 20:56N 46°51' E 031°59'0 0.0
2018-Jul-04 20:29N 46°51' E 031°59'0 0.0
2018-Jul-04 19:56N 46°51' E 031°59'0 0.0
2018-Jul-04 19:29N 46°51' E 031°59'0 0.0
2018-Jul-04 18:59N 46°51' E 031°59'0 0.0
2018-Jul-04 18:29N 46°51' E 031°59'0 0.0
2018-Jul-04 17:59N 46°51' E 031°59'0 0.0
2018-Jul-04 17:29N 46°51' E 031°59'0 0.0
2018-Jul-04 16:59N 46°51' E 031°59'0 0.0
2018-Jul-04 16:29N 46°51' E 031°59'0 0.0
2018-Jul-04 15:59N 46°51' E 031°59'0 0.0
2018-Jul-04 15:29N 46°51' E 031°59'0 0.0
2018-Jul-04 14:56N 46°51' E 031°59'0 0.0
2018-Jul-04 14:29N 46°51' E 031°59'0 0.0
2018-Jul-04 13:59N 46°51' E 031°59'0 0.0
2018-Jul-04 13:29N 46°51' E 031°59'0 0.0
2018-Jul-04 12:59N 46°51' E 031°59'0 0.0
2018-Jul-04 12:26N 46°51' E 031°59'0 0.0
2018-Jul-04 11:59N 46°51' E 031°59'0 0.0
2018-Jul-04 11:29N 46°51' E 031°59'0 0.0
2018-Jul-04 10:59N 46°51' E 031°59'0 0.0
2018-Jul-04 10:29N 46°51' E 031°59'0 0.0
2018-Jul-04 09:59N 46°51' E 031°59'0 0.0
2018-Jul-04 09:29N 46°51' E 031°59'0 0.0
2018-Jul-04 08:59N 46°51' E 031°59'0 0.0
2018-Jul-04 08:29N 46°51' E 031°59'0 0.0
2018-Jul-04 07:59N 46°51' E 031°59'0 0.0
2018-Jul-04 07:29N 46°51' E 031°59'0 0.0
2018-Jul-04 06:59N 46°51' E 031°59'0 0.0
2018-Jul-04 06:26N 46°51' E 031°59'0 0.0
2018-Jul-04 05:59N 46°51' E 031°59'0 0.0
2018-Jul-04 05:29N 46°51' E 031°59'0 0.0
2018-Jul-04 04:59N 46°51' E 031°59'0 0.0
2018-Jul-04 04:29N 46°51' E 031°59'0 0.0
2018-Jul-04 03:59N 46°51' E 031°59'0 0.0
2018-Jul-04 03:29N 46°51' E 031°59'0 0.0
2018-Jul-04 02:59N 46°51' E 031°59'0 0.0
2018-Jul-04 02:29N 46°51' E 031°59'0 0.0
2018-Jul-04 01:59N 46°51' E 031°59'0 0.0
2018-Jul-04 01:29N 46°51' E 031°59'0 0.0
2018-Jul-04 00:59N 46°51' E 031°59'0 0.0
2018-Jul-04 00:29N 46°51' E 031°59'0 0.0
2018-Jul-03 23:59N 46°51' E 031°59'0 0.0
2018-Jul-03 23:29N 46°51' E 031°59'0 0.0
2018-Jul-03 22:59N 46°51' E 031°59'0 0.0
2018-Jul-03 22:29N 46°51' E 031°59'0 0.0
2018-Jul-03 21:56N 46°51' E 031°59'0 0.0
2018-Jul-03 21:29N 46°51' E 031°59'0 0.0
2018-Jul-03 20:59N 46°51' E 031°59'0 0.0
2018-Jul-03 20:29N 46°51' E 031°59'0 0.0
2018-Jul-03 19:59N 46°51' E 031°59'0 0.0
2018-Jul-03 19:29N 46°51' E 031°59'0 0.0
2018-Jul-03 18:59N 46°51' E 031°59'0 0.0
2018-Jul-03 18:29N 46°51' E 031°59'0 0.0
2018-Jul-03 17:56N 46°51' E 031°59'0 0.0
2018-Jul-03 17:29N 46°51' E 031°59'0 0.0
2018-Jul-03 16:59N 46°51' E 031°59'0 0.0
2018-Jul-03 16:29N 46°51' E 031°59'0 0.0
2018-Jul-03 15:56N 46°51' E 031°59'0 0.0
2018-Jul-03 15:26N 46°51' E 031°59'0 0.0
2018-Jul-03 14:59N 46°51' E 031°59'0 0.0
2018-Jul-03 14:29N 46°51' E 031°59'0 0.0
2018-Jul-03 13:59N 46°51' E 031°59'0 0.0
2018-Jul-03 13:29N 46°51' E 031°59'0 0.0
2018-Jul-03 12:59N 46°51' E 031°59'0 0.0
2018-Jul-03 12:29N 46°51' E 031°59'0 0.0
2018-Jul-03 11:59N 46°51' E 031°59'0 0.0
2018-Jul-03 11:29N 46°51' E 031°59'0 0.0
2018-Jul-03 10:59N 46°51' E 031°59'0 0.0
2018-Jul-03 10:29N 46°51' E 031°59'0 0.0
2018-Jul-03 09:59N 46°51' E 031°59'0 0.0
2018-Jul-03 09:29N 46°51' E 031°59'0 0.0
2018-Jul-03 08:59N 46°51' E 031°59'0 0.0
2018-Jul-03 08:25N 46°51' E 031°59'0 0.0
2018-Jul-03 07:58N 46°51' E 031°59'0 0.0
2018-Jul-03 07:28N 46°51' E 031°59'0 0.0
2018-Jul-03 06:58N 46°51' E 031°59'0 0.0
2018-Jul-03 06:28N 46°51' E 031°59'0 0.0
2018-Jul-03 05:58N 46°51' E 031°59'0 0.0
2018-Jul-03 05:28N 46°51' E 031°59'0 0.0
2018-Jul-03 04:58N 46°51' E 031°59'0 0.0
2018-Jul-03 04:28N 46°51' E 031°59'0 0.0
2018-Jul-03 03:58N 46°51' E 031°59'0 0.0
2018-Jul-03 03:28N 46°51' E 031°59'0 0.0
2018-Jul-03 02:58N 46°51' E 031°59'0 0.0
2018-Jul-03 02:28N 46°51' E 031°59'0 0.0
2018-Jul-03 01:58N 46°51' E 031°59'0 0.0
2018-Jul-03 01:28N 46°51' E 031°59'0 0.0
2018-Jul-03 00:58N 46°51' E 031°59'0 0.0
2018-Jul-03 00:28N 46°51' E 031°59'0 0.0
2018-Jul-02 23:58N 46°51' E 031°59'0 0.0
2018-Jul-02 23:28N 46°51' E 031°59'0 0.0
2018-Jul-02 22:58N 46°51' E 031°59'0 0.0
2018-Jul-02 22:28N 46°51' E 031°59'0 0.0
2018-Jul-02 21:58N 46°51' E 031°59'0 0.0
2018-Jul-02 21:28N 46°51' E 031°59'0 0.0
2018-Jul-02 20:58N 46°51' E 031°59'0 0.0
2018-Jul-02 20:28N 46°51' E 031°59'0 0.0
2018-Jul-02 19:58N 46°51' E 031°59'0 0.0
2018-Jul-02 19:28N 46°51' E 031°59'0 0.0
2018-Jul-02 18:55N 46°51' E 031°59'0 0.0
2018-Jul-02 18:28N 46°51' E 031°59'0 0.0
2018-Jul-02 17:58N 46°51' E 031°59'0 0.0
2018-Jul-02 17:28N 46°51' E 031°59'0 0.0
2018-Jul-02 16:58N 46°51' E 031°59'0 0.0
2018-Jul-02 16:28N 46°51' E 031°59'0 0.0
2018-Jul-02 15:55N 46°51' E 031°59'28 3.8
2018-Jul-02 08:43N 46°35' E 031°26'1211.8
2018-Jul-02 07:43N 46°35' E 031°09'313.1
2018-Jul-02 07:30N 46°35' E 031°05'510.7
2018-Jul-02 07:00N 46°33' E 030°58'4 7.8
2018-Jul-02 06:31N 46°29' E 030°57'5 9.1
2018-Jul-02 06:01N 46°24' E 030°57'4 8.2
2018-Jul-02 05:30N 46°21' E 031°01'4 8.4
2018-Jul-02 05:00N 46°20' E 031°07'0 0.1
2018-Jul-02 04:30N 46°20' E 031°07'0 0.0
2018-Jul-02 04:00N 46°20' E 031°07'0 0.0
2018-Jul-02 03:30N 46°20' E 031°07'0 0.1
2018-Jul-02 03:00N 46°20' E 031°07'0 0.0
2018-Jul-02 02:30N 46°20' E 031°07'0 0.1
2018-Jul-02 02:00N 46°20' E 031°07'0 0.0
2018-Jul-02 01:30N 46°20' E 031°07'0 0.1
2018-Jul-02 01:00N 46°20' E 031°07'0 0.1
2018-Jul-02 00:30N 46°20' E 031°07'0 0.0
2018-Jul-01 23:04N 46°20' E 031°07'0 0.2
2018-Jul-01 22:57N 46°20' E 031°07'0 0.1
2018-Jul-01 22:30N 46°20' E 031°07'0 0.0
2018-Jul-01 22:00N 46°20' E 031°07'0 0.0
2018-Jul-01 21:30N 46°20' E 031°07'0 0.1
2018-Jul-01 21:00N 46°20' E 031°07'0 0.0
2018-Jul-01 20:27N 46°20' E 031°07'0 0.0
2018-Jul-01 20:01N 46°20' E 031°07'0 0.2
2018-Jul-01 19:31N 46°20' E 031°07'0 0.0
2018-Jul-01 18:59N 46°20' E 031°07'0 0.0
2018-Jul-01 18:29N 46°20' E 031°07'0 0.0
2018-Jul-01 18:00N 46°20' E 031°07'0 0.0
2018-Jul-01 17:16N 46°20' E 031°07'0 0.0
2018-Jul-01 16:54N 46°20' E 031°07'0 0.0
2018-Jul-01 16:30N 46°20' E 031°07'0 0.0
2018-Jul-01 15:55N 46°20' E 031°07'  
Track history (hours):
 
Tides and Currents Weather Stations Pressure Air Temp Water Temp Dewpoint Dewpoint Depression Visibility Wind Speed Wind Dir Waves Ship Positions

Princimar Hope

Last reported at 2018-Jul-11 15:37 UTC. Time now 2018-Jul-21 22:53 UTC.
Position N 36°38' E 013°28'.
Warning: this ship's position is 10 days out of date.

Length 274 m; draft 9 m.

Type: Ship. MMSI: 538004163.

Date/timePositionNaut miles runAvg speedWind from/ knotsBaromVisibWave heightAir tempDewpointWater temp
2018-Jul-11 15:37N 36°38' E 013°28'110.9
2018-Jul-11 15:30N 36°37' E 013°30'5 9.5
2018-Jul-11 15:00N 36°35' E 013°35'5 9.2
2018-Jul-11 14:29N 36°34' E 013°41'5 8.9
2018-Jul-11 13:52N 36°32' E 013°47'3 8.8
2018-Jul-11 13:30N 36°31' E 013°51'5 9.1
2018-Jul-11 12:57N 36°29' E 013°57'4 9.2
2018-Jul-11 12:30N 36°28' E 014°02'6 9.2
2018-Jul-11 11:50N 36°25' E 014°09'4 9.4
2018-Jul-11 11:22N 36°24' E 014°14'5 9.4
2018-Jul-11 10:51N 36°22' E 014°20'8 9.5
2018-Jul-11 09:57N 36°19' E 014°29'4 9.3
2018-Jul-11 09:30N 36°17' E 014°34'5 9.2
2018-Jul-11 08:59N 36°16' E 014°40'5 9.1
2018-Jul-11 08:24N 36°14' E 014°46'4 9.3
2018-Jul-11 08:00N 36°13' E 014°50'611.1
2018-Jul-11 07:30N 36°11' E 014°57'10 9.6
2018-Jul-11 06:28N 36°10' E 015°09'5 9.5
2018-Jul-11 05:54N 36°10' E 015°16'4 9.6
2018-Jul-11 05:27N 36°10' E 015°21'  
2018-Jul-05 17:59N 46°13' E 030°56'4 8.0
2018-Jul-05 17:29N 46°17' E 030°54'4 9.4
2018-Jul-05 17:01N 46°22' E 030°55'5 9.5
2018-Jul-05 16:30N 46°26' E 030°55'5 9.3
2018-Jul-05 16:00N 46°31' E 030°56'4 7.6
2018-Jul-05 15:30N 46°33' E 030°60'4 7.9
2018-Jul-05 15:00N 46°35' E 031°05'1110.7
2018-Jul-05 14:00N 46°35' E 031°21'510.0
2018-Jul-05 13:30N 46°35' E 031°28'6 8.4
2018-Jul-05 12:51N 46°35' E 031°36'3 9.1
2018-Jul-05 12:30N 46°36' E 031°41'4 7.9
2018-Jul-05 12:01N 46°36' E 031°46'5 9.1
2018-Jul-05 11:30N 46°37' E 031°53'4 8.8
2018-Jul-05 11:01N 46°41' E 031°56'4 8.3
2018-Jul-05 10:30N 46°45' E 031°54'4 8.8
2018-Jul-05 10:00N 46°49' E 031°55'3 6.5
2018-Jul-05 09:31N 46°51' E 031°59'0 0.1
2018-Jul-05 09:00N 46°51' E 031°59'0 0.0
2018-Jul-05 08:30N 46°51' E 031°59'0 0.0
2018-Jul-05 08:00N 46°51' E 031°59'0 0.0
2018-Jul-05 07:30N 46°51' E 031°59'0 0.0
2018-Jul-05 07:00N 46°51' E 031°59'0 0.0
2018-Jul-05 06:30N 46°51' E 031°59'0 0.0
2018-Jul-05 06:00N 46°51' E 031°59'0 0.0
2018-Jul-05 05:30N 46°51' E 031°59'0 0.0
2018-Jul-05 05:00N 46°51' E 031°59'0 0.0
2018-Jul-05 04:30N 46°51' E 031°59'0 0.0
2018-Jul-05 04:00N 46°51' E 031°59'0 0.0
2018-Jul-05 03:30N 46°51' E 031°59'0 0.0
2018-Jul-05 03:00N 46°51' E 031°59'0 0.0
2018-Jul-05 02:30N 46°51' E 031°59'0 0.0
2018-Jul-05 02:00N 46°51' E 031°59'0 0.0
2018-Jul-05 01:30N 46°51' E 031°59'0 0.0
2018-Jul-05 01:00N 46°51' E 031°59'0 0.0
2018-Jul-05 00:30N 46°51' E 031°59'0 0.0
2018-Jul-05 00:00N 46°51' E 031°59'0 0.0
2018-Jul-04 23:30N 46°51' E 031°59'0 0.0
2018-Jul-04 23:00N 46°51' E 031°59'0 0.0
2018-Jul-04 22:26N 46°51' E 031°59'0 0.0
2018-Jul-04 21:53N 46°51' E 031°59'0 0.0
2018-Jul-04 21:23N 46°51' E 031°59'0 0.0
2018-Jul-04 20:56N 46°51' E 031°59'0 0.0
2018-Jul-04 20:29N 46°51' E 031°59'0 0.0
2018-Jul-04 19:56N 46°51' E 031°59'0 0.0
2018-Jul-04 19:29N 46°51' E 031°59'0 0.0
2018-Jul-04 18:59N 46°51' E 031°59'0 0.0
2018-Jul-04 18:29N 46°51' E 031°59'0 0.0
2018-Jul-04 17:59N 46°51' E 031°59'0 0.0
2018-Jul-04 17:29N 46°51' E 031°59'0 0.0
2018-Jul-04 16:59N 46°51' E 031°59'0 0.0
2018-Jul-04 16:29N 46°51' E 031°59'0 0.0
2018-Jul-04 15:59N 46°51' E 031°59'0 0.0
2018-Jul-04 15:29N 46°51' E 031°59'0 0.0
2018-Jul-04 14:56N 46°51' E 031°59'0 0.0
2018-Jul-04 14:29N 46°51' E 031°59'0 0.0
2018-Jul-04 13:59N 46°51' E 031°59'0 0.0
2018-Jul-04 13:29N 46°51' E 031°59'0 0.0
2018-Jul-04 12:59N 46°51' E 031°59'0 0.0
2018-Jul-04 12:26N 46°51' E 031°59'0 0.0
2018-Jul-04 11:59N 46°51' E 031°59'0 0.0
2018-Jul-04 11:29N 46°51' E 031°59'0 0.0
2018-Jul-04 10:59N 46°51' E 031°59'0 0.0
2018-Jul-04 10:29N 46°51' E 031°59'0 0.0
2018-Jul-04 09:59N 46°51' E 031°59'0 0.0
2018-Jul-04 09:29N 46°51' E 031°59'0 0.0
2018-Jul-04 08:59N 46°51' E 031°59'0 0.0
2018-Jul-04 08:29N 46°51' E 031°59'0 0.0
2018-Jul-04 07:59N 46°51' E 031°59'0 0.0
2018-Jul-04 07:29N 46°51' E 031°59'0 0.0
2018-Jul-04 06:59N 46°51' E 031°59'0 0.0
2018-Jul-04 06:26N 46°51' E 031°59'0 0.0
2018-Jul-04 05:59N 46°51' E 031°59'0 0.0
2018-Jul-04 05:29N 46°51' E 031°59'0 0.0
2018-Jul-04 04:59N 46°51' E 031°59'0 0.0
2018-Jul-04 04:29N 46°51' E 031°59'0 0.0
2018-Jul-04 03:59N 46°51' E 031°59'0 0.0
2018-Jul-04 03:29N 46°51' E 031°59'0 0.0
2018-Jul-04 02:59N 46°51' E 031°59'0 0.0
2018-Jul-04 02:29N 46°51' E 031°59'0 0.0
2018-Jul-04 01:59N 46°51' E 031°59'0 0.0
2018-Jul-04 01:29N 46°51' E 031°59'0 0.0
2018-Jul-04 00:59N 46°51' E 031°59'0 0.0
2018-Jul-04 00:29N 46°51' E 031°59'0 0.0
2018-Jul-03 23:59N 46°51' E 031°59'0 0.0
2018-Jul-03 23:29N 46°51' E 031°59'0 0.0
2018-Jul-03 22:59N 46°51' E 031°59'0 0.0
2018-Jul-03 22:29N 46°51' E 031°59'0 0.0
2018-Jul-03 21:56N 46°51' E 031°59'0 0.0
2018-Jul-03 21:29N 46°51' E 031°59'0 0.0
2018-Jul-03 20:59N 46°51' E 031°59'0 0.0
2018-Jul-03 20:29N 46°51' E 031°59'0 0.0
2018-Jul-03 19:59N 46°51' E 031°59'0 0.0
2018-Jul-03 19:29N 46°51' E 031°59'0 0.0
2018-Jul-03 18:59N 46°51' E 031°59'0 0.0
2018-Jul-03 18:29N 46°51' E 031°59'0 0.0
2018-Jul-03 17:56N 46°51' E 031°59'0 0.0
2018-Jul-03 17:29N 46°51' E 031°59'0 0.0
2018-Jul-03 16:59N 46°51' E 031°59'0 0.0
2018-Jul-03 16:29N 46°51' E 031°59'0 0.0
2018-Jul-03 15:56N 46°51' E 031°59'0 0.0
2018-Jul-03 15:26N 46°51' E 031°59'0 0.0
2018-Jul-03 14:59N 46°51' E 031°59'0 0.0
2018-Jul-03 14:29N 46°51' E 031°59'0 0.0
2018-Jul-03 13:59N 46°51' E 031°59'0 0.0
2018-Jul-03 13:29N 46°51' E 031°59'0 0.0
2018-Jul-03 12:59N 46°51' E 031°59'0 0.0
2018-Jul-03 12:29N 46°51' E 031°59'0 0.0
2018-Jul-03 11:59N 46°51' E 031°59'0 0.0
2018-Jul-03 11:29N 46°51' E 031°59'0 0.0
2018-Jul-03 10:59N 46°51' E 031°59'0 0.0
2018-Jul-03 10:29N 46°51' E 031°59'0 0.0
2018-Jul-03 09:59N 46°51' E 031°59'0 0.0
2018-Jul-03 09:29N 46°51' E 031°59'0 0.0
2018-Jul-03 08:59N 46°51' E 031°59'0 0.0
2018-Jul-03 08:25N 46°51' E 031°59'0 0.0
2018-Jul-03 07:58N 46°51' E 031°59'0 0.0
2018-Jul-03 07:28N 46°51' E 031°59'0 0.0
2018-Jul-03 06:58N 46°51' E 031°59'0 0.0
2018-Jul-03 06:28N 46°51' E 031°59'0 0.0
2018-Jul-03 05:58N 46°51' E 031°59'0 0.0
2018-Jul-03 05:28N 46°51' E 031°59'0 0.0
2018-Jul-03 04:58N 46°51' E 031°59'0 0.0
2018-Jul-03 04:28N 46°51' E 031°59'0 0.0
2018-Jul-03 03:58N 46°51' E 031°59'0 0.0
2018-Jul-03 03:28N 46°51' E 031°59'0 0.0
2018-Jul-03 02:58N 46°51' E 031°59'0 0.0
2018-Jul-03 02:28N 46°51' E 031°59'0 0.0
2018-Jul-03 01:58N 46°51' E 031°59'0 0.0
2018-Jul-03 01:28N 46°51' E 031°59'0 0.0
2018-Jul-03 00:58N 46°51' E 031°59'0 0.0
2018-Jul-03 00:28N 46°51' E 031°59'0 0.0
2018-Jul-02 23:58N 46°51' E 031°59'0 0.0
2018-Jul-02 23:28N 46°51' E 031°59'0 0.0
2018-Jul-02 22:58N 46°51' E 031°59'0 0.0
2018-Jul-02 22:28N 46°51' E 031°59'0 0.0
2018-Jul-02 21:58N 46°51' E 031°59'0 0.0
2018-Jul-02 21:28N 46°51' E 031°59'0 0.0
2018-Jul-02 20:58N 46°51' E 031°59'0 0.0
2018-Jul-02 20:28N 46°51' E 031°59'0 0.0
2018-Jul-02 19:58N 46°51' E 031°59'0 0.0
2018-Jul-02 19:28N 46°51' E 031°59'0 0.0
2018-Jul-02 18:55N 46°51' E 031°59'0 0.0
2018-Jul-02 18:28N 46°51' E 031°59'0 0.0
2018-Jul-02 17:58N 46°51' E 031°59'0 0.0
2018-Jul-02 17:28N 46°51' E 031°59'0 0.0
2018-Jul-02 16:58N 46°51' E 031°59'0 0.0
2018-Jul-02 16:28N 46°51' E 031°59'0 0.0
2018-Jul-02 15:55N 46°51' E 031°59'28 3.8
2018-Jul-02 08:43N 46°35' E 031°26'1211.8
2018-Jul-02 07:43N 46°35' E 031°09'313.1
2018-Jul-02 07:30N 46°35' E 031°05'510.7
2018-Jul-02 07:00N 46°33' E 030°58'4 7.8
2018-Jul-02 06:31N 46°29' E 030°57'5 9.1
2018-Jul-02 06:01N 46°24' E 030°57'4 8.2
2018-Jul-02 05:30N 46°21' E 031°01'4 8.4
2018-Jul-02 05:00N 46°20' E 031°07'0 0.1
2018-Jul-02 04:30N 46°20' E 031°07'0 0.0
2018-Jul-02 04:00N 46°20' E 031°07'0 0.0
2018-Jul-02 03:30N 46°20' E 031°07'0 0.1
2018-Jul-02 03:00N 46°20' E 031°07'0 0.0
2018-Jul-02 02:30N 46°20' E 031°07'0 0.1
2018-Jul-02 02:00N 46°20' E 031°07'0 0.0
2018-Jul-02 01:30N 46°20' E 031°07'0 0.1
2018-Jul-02 01:00N 46°20' E 031°07'0 0.1
2018-Jul-02 00:30N 46°20' E 031°07'0 0.0
2018-Jul-01 23:04N 46°20' E 031°07'0 0.2
2018-Jul-01 22:57N 46°20' E 031°07'0 0.1
2018-Jul-01 22:30N 46°20' E 031°07'0 0.0
2018-Jul-01 22:00N 46°20' E 031°07'0 0.0
2018-Jul-01 21:30N 46°20' E 031°07'0 0.1
2018-Jul-01 21:00N 46°20' E 031°07'0 0.0
2018-Jul-01 20:27N 46°20' E 031°07'0 0.0
2018-Jul-01 20:01N 46°20' E 031°07'0 0.2
2018-Jul-01 19:31N 46°20' E 031°07'0 0.0
2018-Jul-01 18:59N 46°20' E 031°07'0 0.0
2018-Jul-01 18:29N 46°20' E 031°07'0 0.0
2018-Jul-01 18:00N 46°20' E 031°07'0 0.0
2018-Jul-01 17:16N 46°20' E 031°07'0 0.0
2018-Jul-01 16:54N 46°20' E 031°07'0 0.0
2018-Jul-01 16:30N 46°20' E 031°07'0 0.0
2018-Jul-01 15:55N 46°20' E 031°07'  

Dump ship's entire track history